createdAt,value
2018-10-21T00:00:01.618Z,1022.50
2018-10-21T00:01:01.531Z,1022.52
2018-10-21T00:02:01.520Z,1022.54
2018-10-21T00:03:01.539Z,1022.56
2018-10-21T00:04:01.520Z,1022.64
2018-10-21T00:05:01.485Z,1022.66
2018-10-21T00:06:01.545Z,1022.62
2018-10-21T00:07:01.463Z,1022.60
2018-10-21T00:08:01.454Z,1022.59
2018-10-21T00:09:01.482Z,1022.60
2018-10-21T00:10:01.435Z,1022.60
2018-10-21T00:11:01.482Z,1022.56
2018-10-21T00:12:01.410Z,1022.58
2018-10-21T00:13:01.418Z,1022.59
2018-10-21T00:14:01.391Z,1022.58
2018-10-21T00:15:01.393Z,1022.62
2018-10-21T00:16:01.430Z,1022.67
2018-10-21T00:17:01.355Z,1022.72
2018-10-21T00:18:01.352Z,1022.70
2018-10-21T00:19:01.967Z,1022.73
2018-10-21T00:20:01.325Z,1022.78
2018-10-21T00:21:01.422Z,1022.78
2018-10-21T00:22:01.307Z,1022.77
2018-10-21T00:23:01.291Z,1022.84
2018-10-21T00:24:01.280Z,1022.79
2018-10-21T00:25:01.274Z,1022.78
2018-10-21T00:26:01.534Z,1022.77
2018-10-21T00:27:01.266Z,1022.74
2018-10-21T00:28:01.254Z,1022.76
2018-10-21T00:29:01.228Z,1022.81
2018-10-21T00:30:01.217Z,1022.81
2018-10-21T00:31:01.266Z,1022.74
2018-10-21T00:32:01.197Z,1022.80
2018-10-21T00:33:01.202Z,1022.77
2018-10-21T00:34:01.183Z,1022.80
2018-10-21T00:35:01.161Z,1022.82
2018-10-21T00:36:01.217Z,1022.83
2018-10-21T00:37:01.142Z,1022.81
2018-10-21T00:38:01.133Z,1022.77
2018-10-21T00:39:01.151Z,1022.75
2018-10-21T00:40:01.959Z,1022.73
2018-10-21T00:41:01.167Z,1022.80
2018-10-21T00:42:01.094Z,1022.71
2018-10-21T00:43:01.081Z,1022.70
2018-10-21T00:44:01.071Z,1022.70
2018-10-21T00:45:01.063Z,1022.72
2018-10-21T00:46:01.106Z,1022.80
2018-10-21T00:47:01.037Z,1022.77
2018-10-21T00:48:01.025Z,1022.80
2018-10-21T00:49:01.014Z,1022.76
2018-10-21T00:50:01.003Z,1022.77
2018-10-21T00:51:01.117Z,1022.72
2018-10-21T00:52:00.981Z,1022.68
2018-10-21T00:53:00.972Z,1022.67
2018-10-21T00:54:00.962Z,1022.68
2018-10-21T00:55:00.987Z,1022.67
2018-10-21T00:56:01.007Z,1022.73
2018-10-21T00:57:00.936Z,1022.69
2018-10-21T00:58:00.920Z,1022.77
2018-10-21T00:59:00.909Z,1022.77
2018-10-21T01:00:00.898Z,1022.81
2018-10-21T01:01:01.540Z,1022.73
2018-10-21T01:02:00.876Z,1022.75
2018-10-21T01:03:00.888Z,1022.74
2018-10-21T01:04:00.874Z,1022.81
2018-10-21T01:05:00.845Z,1022.77
2018-10-21T01:06:00.902Z,1022.76
2018-10-21T01:07:00.829Z,1022.81
2018-10-21T01:08:00.817Z,1022.83
2018-10-21T01:09:00.850Z,1022.87
2018-10-21T01:10:00.798Z,1022.85
2018-10-21T01:11:01.022Z,1022.91
2018-10-21T01:12:00.768Z,1022.92
2018-10-21T01:13:00.757Z,1022.92
2018-10-21T01:14:00.748Z,1023.01
2018-10-21T01:15:00.802Z,1022.95
2018-10-21T01:16:00.788Z,1022.95
2018-10-21T01:17:00.715Z,1022.98
2018-10-21T01:18:00.704Z,1022.97
2018-10-21T01:19:00.693Z,1022.97
2018-10-21T01:20:00.687Z,1022.99
2018-10-21T01:21:00.757Z,1022.95
2018-10-21T01:22:01.450Z,1022.99
2018-10-21T01:23:00.651Z,1022.98
2018-10-21T01:24:00.640Z,1022.94
2018-10-21T01:25:00.629Z,1022.95
2018-10-21T01:26:00.681Z,1022.97
2018-10-21T01:27:00.610Z,1022.95
2018-10-21T01:28:00.605Z,1022.96
2018-10-21T01:29:00.589Z,1022.91
2018-10-21T01:30:00.574Z,1022.90
2018-10-21T01:31:00.627Z,1022.91
2018-10-21T01:32:00.554Z,1022.90
2018-10-21T01:33:00.552Z,1022.83
2018-10-21T01:34:00.532Z,1022.82
2018-10-21T01:35:00.524Z,1022.83
2018-10-21T01:36:00.593Z,1022.78
2018-10-21T01:37:00.570Z,1022.78
2018-10-21T01:38:00.502Z,1022.81
2018-10-21T01:39:00.491Z,1022.75
2018-10-21T01:40:00.471Z,1022.71
2018-10-21T01:41:00.518Z,1022.77
2018-10-21T01:42:00.451Z,1022.68
2018-10-21T01:43:00.947Z,1022.68
2018-10-21T01:44:00.427Z,1022.74
2018-10-21T01:45:00.448Z,1022.75
2018-10-21T01:46:00.474Z,1022.75
2018-10-21T01:47:00.391Z,1022.72
2018-10-21T01:48:00.382Z,1022.75
2018-10-21T01:49:00.371Z,1022.75
2018-10-21T01:50:00.361Z,1022.69
2018-10-21T01:51:00.430Z,1022.70
2018-10-21T01:52:00.340Z,1022.69
2018-10-21T01:53:00.333Z,1022.71
2018-10-21T01:54:00.319Z,1022.66
2018-10-21T01:55:00.311Z,1022.67
2018-10-21T01:56:00.300Z,1022.62
2018-10-21T01:57:00.357Z,1022.65
2018-10-21T01:58:00.272Z,1022.65
2018-10-21T01:59:00.261Z,1022.67
2018-10-21T02:00:00.253Z,1022.66
2018-10-21T02:01:00.239Z,1022.64
2018-10-21T02:02:00.301Z,1022.62
2018-10-21T02:03:00.225Z,1022.66
2018-10-21T02:04:00.943Z,1022.68
2018-10-21T02:05:00.201Z,1022.66
2018-10-21T02:06:00.193Z,1022.64
2018-10-21T02:07:00.236Z,1022.65
2018-10-21T02:08:00.172Z,1022.69
2018-10-21T02:09:00.214Z,1022.68
2018-10-21T02:10:00.151Z,1022.67
2018-10-21T02:11:00.140Z,1022.72
2018-10-21T02:12:00.190Z,1022.65
2018-10-21T02:13:00.117Z,1022.66
2018-10-21T02:14:00.150Z,1022.66
2018-10-21T02:15:00.158Z,1022.66
2018-10-21T02:16:00.082Z,1022.69
2018-10-21T02:17:00.145Z,1022.63
2018-10-21T02:18:00.062Z,1022.63
2018-10-21T02:19:00.054Z,1022.60
2018-10-21T02:20:00.044Z,1022.57
2018-10-21T02:21:00.036Z,1022.59
2018-10-21T02:22:00.086Z,1022.62
2018-10-21T02:23:00.010Z,1022.57
2018-10-21T02:23:59.998Z,1022.55
2018-10-21T02:25:00.941Z,1022.56
2018-10-21T02:25:59.973Z,1022.53
2018-10-21T02:27:00.524Z,1022.52
2018-10-21T02:27:59.959Z,1022.52
2018-10-21T02:28:59.946Z,1022.57
2018-10-21T02:29:59.932Z,1022.56
2018-10-21T02:30:59.932Z,1022.55
2018-10-21T02:31:59.974Z,1022.58
2018-10-21T02:32:59.989Z,1022.60
2018-10-21T02:33:59.894Z,1022.63
2018-10-21T02:34:59.880Z,1022.63
2018-10-21T02:35:59.868Z,1022.65
2018-10-21T02:36:59.921Z,1022.66
2018-10-21T02:37:59.852Z,1022.64
2018-10-21T02:38:59.862Z,1022.72
2018-10-21T02:39:59.827Z,1022.68
2018-10-21T02:40:59.816Z,1022.65
2018-10-21T02:41:59.869Z,1022.65
2018-10-21T02:42:59.797Z,1022.65
2018-10-21T02:43:59.782Z,1022.68
2018-10-21T02:44:59.784Z,1022.66
2018-10-21T02:46:04.431Z,1022.66
2018-10-21T02:46:59.824Z,1022.70
2018-10-21T02:47:59.741Z,1022.74
2018-10-21T02:48:59.732Z,1022.70
2018-10-21T02:49:59.725Z,1022.76
2018-10-21T02:50:59.757Z,1022.78
2018-10-21T02:51:59.760Z,1022.74
2018-10-21T02:52:59.689Z,1022.73
2018-10-21T02:53:59.675Z,1022.70
2018-10-21T02:54:59.669Z,1022.71
2018-10-21T02:55:59.659Z,1022.69
2018-10-21T02:56:59.770Z,1022.70
2018-10-21T02:57:59.652Z,1022.72
2018-10-21T02:58:59.622Z,1022.66
2018-10-21T02:59:59.625Z,1022.65
2018-10-21T03:00:59.608Z,1022.66
2018-10-21T03:01:59.653Z,1022.64
2018-10-21T03:02:59.584Z,1022.65
2018-10-21T03:03:59.572Z,1022.70
2018-10-21T03:04:59.562Z,1022.72
2018-10-21T03:05:59.553Z,1022.68
2018-10-21T03:07:00.503Z,1022.69
2018-10-21T03:07:59.531Z,1022.65
2018-10-21T03:08:59.593Z,1022.72
2018-10-21T03:09:59.508Z,1022.67
2018-10-21T03:10:59.501Z,1022.65
2018-10-21T03:11:59.559Z,1022.67
2018-10-21T03:12:59.481Z,1022.69
2018-10-21T03:13:59.467Z,1022.66
2018-10-21T03:14:59.461Z,1022.69
2018-10-21T03:15:59.445Z,1022.63
2018-10-21T03:16:59.500Z,1022.63
2018-10-21T03:17:59.430Z,1022.58
2018-10-21T03:18:59.427Z,1022.58
2018-10-21T03:19:59.423Z,1022.56
2018-10-21T03:20:59.439Z,1022.54
2018-10-21T03:21:59.448Z,1022.56
2018-10-21T03:22:59.374Z,1022.58
2018-10-21T03:23:59.360Z,1022.60
2018-10-21T03:24:59.354Z,1022.66
2018-10-21T03:25:59.340Z,1022.64
2018-10-21T03:26:59.408Z,1022.64
2018-10-21T03:28:00.927Z,1022.73
2018-10-21T03:28:59.309Z,1022.69
2018-10-21T03:29:59.298Z,1022.70
2018-10-21T03:30:59.284Z,1022.69
2018-10-21T03:31:59.342Z,1022.67
2018-10-21T03:32:59.350Z,1022.60
2018-10-21T03:33:59.334Z,1022.54
2018-10-21T03:34:59.243Z,1022.55
2018-10-21T03:35:59.240Z,1022.54
2018-10-21T03:36:59.282Z,1022.47
2018-10-21T03:37:59.215Z,1022.53
2018-10-21T03:38:59.238Z,1022.55
2018-10-21T03:39:59.245Z,1022.58
2018-10-21T03:40:59.182Z,1022.56
2018-10-21T03:41:59.245Z,1022.57
2018-10-21T03:42:59.163Z,1022.56
2018-10-21T03:43:59.154Z,1022.47
2018-10-21T03:44:59.138Z,1022.57
2018-10-21T03:45:59.165Z,1022.48
2018-10-21T03:46:59.119Z,1022.50
2018-10-21T03:47:59.187Z,1022.45
2018-10-21T03:48:59.924Z,1022.45
2018-10-21T03:49:59.090Z,1022.46
2018-10-21T03:50:59.079Z,1022.44
2018-10-21T03:51:59.105Z,1022.52
2018-10-21T03:52:59.115Z,1022.52
2018-10-21T03:53:59.044Z,1022.51
2018-10-21T03:54:59.033Z,1022.56
2018-10-21T03:55:59.036Z,1022.50
2018-10-21T03:56:59.013Z,1022.60
2018-10-21T03:57:59.089Z,1022.59
2018-10-21T03:58:58.998Z,1022.62
2018-10-21T03:59:58.980Z,1022.54
2018-10-21T04:00:58.972Z,1022.52
2018-10-21T04:01:58.957Z,1022.49
2018-10-21T04:02:59.012Z,1022.55
2018-10-21T04:03:58.965Z,1022.49
2018-10-21T04:04:58.929Z,1022.55
2018-10-21T04:05:58.915Z,1022.49
2018-10-21T04:06:58.907Z,1022.52
2018-10-21T04:07:58.960Z,1022.49
2018-10-21T04:08:58.891Z,1022.49
2018-10-21T04:10:01.469Z,1022.53
2018-10-21T04:10:58.863Z,1022.54
2018-10-21T04:11:58.852Z,1022.49
2018-10-21T04:12:58.912Z,1022.50
2018-10-21T04:13:58.833Z,1022.47
2018-10-21T04:14:58.824Z,1022.50
2018-10-21T04:15:58.836Z,1022.49
2018-10-21T04:16:58.802Z,1022.47
2018-10-21T04:17:58.849Z,1022.39
2018-10-21T04:18:58.781Z,1022.42
2018-10-21T04:19:58.773Z,1022.39
2018-10-21T04:20:58.761Z,1022.38
2018-10-21T04:21:58.779Z,1022.38
2018-10-21T04:22:58.798Z,1022.39
2018-10-21T04:23:58.728Z,1022.40
2018-10-21T04:24:58.717Z,1022.39
2018-10-21T04:25:58.706Z,1022.37
2018-10-21T04:26:58.699Z,1022.30
2018-10-21T04:27:58.793Z,1022.29
2018-10-21T04:28:58.673Z,1022.30
2018-10-21T04:29:58.664Z,1022.25
2018-10-21T04:30:59.416Z,1022.25
2018-10-21T04:31:58.642Z,1022.26
2018-10-21T04:32:58.698Z,1022.27
2018-10-21T04:33:58.631Z,1022.20
2018-10-21T04:34:58.611Z,1022.20
2018-10-21T04:35:58.606Z,1022.22
2018-10-21T04:36:58.589Z,1022.19
2018-10-21T04:37:58.649Z,1022.22
2018-10-21T04:38:58.572Z,1022.17
2018-10-21T04:39:58.581Z,1022.15
2018-10-21T04:40:58.547Z,1022.14
2018-10-21T04:41:58.547Z,1022.12
2018-10-21T04:42:58.586Z,1022.08
2018-10-21T04:43:58.519Z,1022.12
2018-10-21T04:44:58.509Z,1022.10
2018-10-21T04:45:58.513Z,1022.13
2018-10-21T04:46:58.615Z,1022.07
2018-10-21T04:47:58.531Z,1022.01
2018-10-21T04:48:58.463Z,1022.05
2018-10-21T04:49:58.453Z,1022.03
2018-10-21T04:50:58.441Z,1021.98
2018-10-21T04:51:59.446Z,1021.94
2018-10-21T04:52:58.487Z,1021.95
2018-10-21T04:53:58.423Z,1021.97
2018-10-21T04:54:58.398Z,1021.91
2018-10-21T04:55:58.391Z,1021.90
2018-10-21T04:56:58.378Z,1021.92
2018-10-21T04:57:58.471Z,1021.93
2018-10-21T04:58:58.361Z,1021.89
2018-10-21T04:59:58.350Z,1021.93
2018-10-21T05:00:58.339Z,1021.89
2018-10-21T05:01:58.329Z,1021.91
2018-10-21T05:02:58.389Z,1021.89
2018-10-21T05:03:58.334Z,1021.91
2018-10-21T05:04:58.302Z,1021.93
2018-10-21T05:05:58.282Z,1021.89
2018-10-21T05:06:58.271Z,1021.94
2018-10-21T05:07:58.268Z,1021.92
2018-10-21T05:08:58.326Z,1021.91
2018-10-21T05:09:58.307Z,1021.91
2018-10-21T05:10:58.235Z,1021.93
2018-10-21T05:11:58.234Z,1021.94
2018-10-21T05:12:58.912Z,1021.90
2018-10-21T05:13:58.263Z,1021.90
2018-10-21T05:14:58.192Z,1021.87
2018-10-21T05:15:58.203Z,1021.95
2018-10-21T05:16:58.168Z,1021.94
2018-10-21T05:17:58.167Z,1021.97
2018-10-21T05:18:58.212Z,1021.94
2018-10-21T05:19:58.137Z,1021.91
2018-10-21T05:20:58.134Z,1021.91
2018-10-21T05:21:58.162Z,1021.86
2018-10-21T05:22:58.108Z,1021.86
2018-10-21T05:23:58.187Z,1021.87
2018-10-21T05:24:58.087Z,1021.89
2018-10-21T05:25:58.079Z,1021.87
2018-10-21T05:26:58.064Z,1021.79
2018-10-21T05:27:58.089Z,1021.85
2018-10-21T05:28:58.479Z,1021.83
2018-10-21T05:29:58.033Z,1021.82
2018-10-21T05:30:58.022Z,1021.80
2018-10-21T05:31:58.016Z,1021.88
2018-10-21T05:32:57.999Z,1021.91
2018-10-21T05:33:58.544Z,1021.86
2018-10-21T05:34:57.992Z,1021.83
2018-10-21T05:35:57.969Z,1021.80
2018-10-21T05:36:58.008Z,1021.82
2018-10-21T05:37:57.996Z,1021.81
2018-10-21T05:38:58.013Z,1021.77
2018-10-21T05:39:57.983Z,1021.83
2018-10-21T05:40:57.922Z,1021.82
2018-10-21T05:41:57.908Z,1021.86
2018-10-21T05:42:57.899Z,1021.86
2018-10-21T05:43:57.945Z,1021.91
2018-10-21T05:44:57.885Z,1021.96
2018-10-21T05:45:57.867Z,1021.92
2018-10-21T05:46:57.879Z,1021.93
2018-10-21T05:47:57.845Z,1021.91
2018-10-21T05:48:57.934Z,1021.88
2018-10-21T05:49:57.825Z,1021.91
2018-10-21T05:50:57.814Z,1021.96
2018-10-21T05:51:57.808Z,1021.89
2018-10-21T05:52:57.801Z,1021.90
2018-10-21T05:53:57.845Z,1021.91
2018-10-21T05:54:58.406Z,1021.89
2018-10-21T05:55:57.761Z,1021.93
2018-10-21T05:56:57.749Z,1021.95
2018-10-21T05:57:57.793Z,1021.98
2018-10-21T05:58:57.797Z,1021.98
2018-10-21T05:59:57.723Z,1021.99
2018-10-21T06:00:57.709Z,1021.98
2018-10-21T06:01:57.698Z,1021.96
2018-10-21T06:02:57.777Z,1021.98
2018-10-21T06:03:57.761Z,1022.00
2018-10-21T06:04:57.673Z,1022.00
2018-10-21T06:05:57.656Z,1021.99
2018-10-21T06:06:57.645Z,1022.03
2018-10-21T06:07:57.634Z,1022.09
2018-10-21T06:08:57.705Z,1022.04
2018-10-21T06:09:57.626Z,1022.02
2018-10-21T06:10:57.608Z,1022.05
2018-10-21T06:11:57.598Z,1021.99
2018-10-21T06:12:57.590Z,1022.04
2018-10-21T06:13:57.634Z,1022.00
2018-10-21T06:14:57.560Z,1021.99
2018-10-21T06:15:58.483Z,1021.98
2018-10-21T06:16:57.548Z,1022.00
2018-10-21T06:17:57.527Z,1021.99
2018-10-21T06:18:57.976Z,1022.03
2018-10-21T06:19:57.511Z,1022.02
2018-10-21T06:20:57.506Z,1022.05
2018-10-21T06:21:57.531Z,1022.09
2018-10-21T06:22:57.484Z,1022.07
2018-10-21T06:23:57.553Z,1022.08
2018-10-21T06:24:57.457Z,1022.08
2018-10-21T06:25:57.461Z,1022.09
2018-10-21T06:26:57.434Z,1022.08
2018-10-21T06:27:57.426Z,1022.17
2018-10-21T06:28:57.477Z,1022.18
2018-10-21T06:29:57.404Z,1022.23
2018-10-21T06:30:57.390Z,1022.16
2018-10-21T06:31:57.390Z,1022.17
2018-10-21T06:32:57.416Z,1022.18
2018-10-21T06:33:57.426Z,1022.19
2018-10-21T06:34:57.351Z,1022.19
2018-10-21T06:35:57.342Z,1022.20
2018-10-21T06:36:57.892Z,1022.18
2018-10-21T06:37:57.320Z,1022.20
2018-10-21T06:38:57.409Z,1022.21
2018-10-21T06:39:57.296Z,1022.24
2018-10-21T06:40:57.291Z,1022.21
2018-10-21T06:41:57.274Z,1022.22
2018-10-21T06:42:57.262Z,1022.21
2018-10-21T06:43:57.334Z,1022.23
2018-10-21T06:44:57.276Z,1022.26
2018-10-21T06:45:57.233Z,1022.22
2018-10-21T06:46:57.224Z,1022.22
2018-10-21T06:47:57.215Z,1022.26
2018-10-21T06:48:57.207Z,1022.29
2018-10-21T06:49:57.252Z,1022.25
2018-10-21T06:50:57.200Z,1022.19
2018-10-21T06:51:57.172Z,1022.23
2018-10-21T06:52:57.158Z,1022.24
2018-10-21T06:53:57.147Z,1022.25
2018-10-21T06:54:57.207Z,1022.21
2018-10-21T06:55:57.127Z,1022.28
2018-10-21T06:56:57.131Z,1022.26
2018-10-21T06:57:57.887Z,1022.34
2018-10-21T06:58:57.094Z,1022.31
2018-10-21T06:59:57.144Z,1022.32
2018-10-21T07:00:57.075Z,1022.29
2018-10-21T07:01:57.064Z,1022.33
2018-10-21T07:02:57.053Z,1022.38
2018-10-21T07:03:57.079Z,1022.32
2018-10-21T07:04:57.148Z,1022.34
2018-10-21T07:05:57.022Z,1022.35
2018-10-21T07:06:57.014Z,1022.36
2018-10-21T07:07:56.997Z,1022.40
2018-10-21T07:08:56.988Z,1022.44
2018-10-21T07:09:57.470Z,1022.39
2018-10-21T07:10:56.966Z,1022.41
2018-10-21T07:11:56.953Z,1022.43
2018-10-21T07:12:56.947Z,1022.47
2018-10-21T07:13:56.937Z,1022.46
2018-10-21T07:14:56.984Z,1022.51
2018-10-21T07:15:56.982Z,1022.53
2018-10-21T07:16:56.908Z,1022.55
2018-10-21T07:17:56.889Z,1022.51
2018-10-21T07:18:57.388Z,1022.51
2018-10-21T07:19:56.933Z,1022.55
2018-10-21T07:20:56.859Z,1022.59
2018-10-21T07:21:56.889Z,1022.53
2018-10-21T07:22:56.837Z,1022.54
2018-10-21T07:23:56.826Z,1022.57
2018-10-21T07:24:56.877Z,1022.52
2018-10-21T07:25:56.804Z,1022.51
2018-10-21T07:26:56.796Z,1022.54
2018-10-21T07:27:56.849Z,1022.57
2018-10-21T07:28:56.771Z,1022.61
2018-10-21T07:29:56.851Z,1022.67
2018-10-21T07:30:56.752Z,1022.62
2018-10-21T07:31:56.740Z,1022.67
2018-10-21T07:32:56.732Z,1022.62
2018-10-21T07:33:56.727Z,1022.67
2018-10-21T07:34:56.777Z,1022.72
2018-10-21T07:35:56.707Z,1022.74
2018-10-21T07:36:56.688Z,1022.74
2018-10-21T07:37:56.677Z,1022.77
2018-10-21T07:38:56.665Z,1022.74
2018-10-21T07:39:56.956Z,1022.71
2018-10-21T07:40:56.646Z,1022.73
2018-10-21T07:41:56.638Z,1022.72
2018-10-21T07:42:56.627Z,1022.68
2018-10-21T07:43:56.613Z,1022.70
2018-10-21T07:44:56.676Z,1022.66
2018-10-21T07:45:56.645Z,1022.70
2018-10-21T07:46:56.591Z,1022.67
2018-10-21T07:47:56.579Z,1022.66
2018-10-21T07:48:56.603Z,1022.72
2018-10-21T07:49:56.630Z,1022.66
2018-10-21T07:50:56.541Z,1022.67
2018-10-21T07:51:56.575Z,1022.66
2018-10-21T07:52:56.516Z,1022.68
2018-10-21T07:53:56.508Z,1022.73
2018-10-21T07:54:56.558Z,1022.72
2018-10-21T07:55:56.487Z,1022.71
2018-10-21T07:56:56.472Z,1022.62
2018-10-21T07:57:56.509Z,1022.67
2018-10-21T07:58:56.450Z,1022.73
2018-10-21T07:59:56.502Z,1022.64
2018-10-21T08:00:57.493Z,1022.62
2018-10-21T08:01:56.420Z,1022.66
2018-10-21T08:02:56.408Z,1022.64
2018-10-21T08:03:56.419Z,1022.72
2018-10-21T08:04:56.450Z,1022.70
2018-10-21T08:05:56.379Z,1022.72
2018-10-21T08:06:56.364Z,1022.73
2018-10-21T08:07:56.356Z,1022.74
2018-10-21T08:08:56.345Z,1022.80
2018-10-21T08:09:56.419Z,1022.79
2018-10-21T08:10:56.320Z,1022.77
2018-10-21T08:11:56.362Z,1022.64
2018-10-21T08:12:56.301Z,1022.75
2018-10-21T08:13:56.303Z,1022.65
2018-10-21T08:14:56.380Z,1022.68
2018-10-21T08:15:56.300Z,1022.63
2018-10-21T08:16:56.264Z,1022.63
2018-10-21T08:17:56.253Z,1022.51
2018-10-21T08:18:56.239Z,1022.56
2018-10-21T08:19:56.286Z,1022.61
2018-10-21T08:20:56.217Z,1022.66
2018-10-21T08:21:56.932Z,1022.59
2018-10-21T08:22:56.193Z,1022.64
2018-10-21T08:23:56.184Z,1022.59
2018-10-21T08:24:56.236Z,1022.56
2018-10-21T08:25:56.162Z,1022.62
2018-10-21T08:26:56.154Z,1022.55
2018-10-21T08:27:56.206Z,1022.52
2018-10-21T08:28:56.132Z,1022.57
2018-10-21T08:29:56.178Z,1022.57
2018-10-21T08:30:56.106Z,1022.57
2018-10-21T08:31:56.096Z,1022.49
2018-10-21T08:32:56.084Z,1022.48
2018-10-21T08:33:56.089Z,1022.50
2018-10-21T08:34:56.123Z,1022.47
2018-10-21T08:35:56.060Z,1022.52
2018-10-21T08:36:56.042Z,1022.53
2018-10-21T08:37:56.032Z,1022.51
2018-10-21T08:38:56.024Z,1022.50
2018-10-21T08:39:56.065Z,1022.41
2018-10-21T08:40:56.066Z,1022.40
2018-10-21T08:41:55.990Z,1022.42
2018-10-21T08:42:56.883Z,1022.46
2018-10-21T08:43:55.971Z,1022.44
2018-10-21T08:44:55.954Z,1022.40
2018-10-21T08:45:56.009Z,1022.40
2018-10-21T08:46:55.933Z,1022.39
2018-10-21T08:47:55.921Z,1022.42
2018-10-21T08:48:55.947Z,1022.47
2018-10-21T08:49:55.966Z,1022.42
2018-10-21T08:50:55.954Z,1022.47
2018-10-21T08:51:55.887Z,1022.38
2018-10-21T08:52:55.871Z,1022.34
2018-10-21T08:53:55.864Z,1022.38
2018-10-21T08:54:55.902Z,1022.41
2018-10-21T08:55:55.953Z,1022.44
2018-10-21T08:56:55.827Z,1022.44
2018-10-21T08:57:55.833Z,1022.37
2018-10-21T08:58:55.807Z,1022.45
2018-10-21T08:59:55.796Z,1022.38
2018-10-21T09:00:55.879Z,1022.38
2018-10-21T09:01:55.788Z,1022.35
2018-10-21T09:02:55.765Z,1022.44
2018-10-21T09:03:56.410Z,1022.42
2018-10-21T09:04:55.742Z,1022.45
2018-10-21T09:05:55.793Z,1022.41
2018-10-21T09:06:55.732Z,1022.40
2018-10-21T09:07:55.713Z,1022.41
2018-10-21T09:08:55.701Z,1022.44
2018-10-21T09:09:55.716Z,1022.33
2018-10-21T09:10:55.954Z,1022.39
2018-10-21T09:11:55.674Z,1022.38
2018-10-21T09:12:55.668Z,1022.36
2018-10-21T09:13:55.666Z,1022.32
2018-10-21T09:14:55.696Z,1022.23
2018-10-21T09:15:55.702Z,1022.26
2018-10-21T09:16:55.616Z,1022.15
2018-10-21T09:17:55.605Z,1022.19
2018-10-21T09:18:55.608Z,1022.22
2018-10-21T09:19:55.589Z,1022.21
2018-10-21T09:20:55.635Z,1022.22
2018-10-21T09:21:55.620Z,1022.16
2018-10-21T09:22:55.553Z,1022.16
2018-10-21T09:23:55.564Z,1022.16
2018-10-21T09:24:56.417Z,1022.16
2018-10-21T09:25:55.590Z,1022.20
2018-10-21T09:26:55.509Z,1022.09
2018-10-21T09:27:55.555Z,1022.13
2018-10-21T09:28:55.489Z,1022.11
2018-10-21T09:29:55.475Z,1022.18
2018-10-21T09:30:55.544Z,1022.23
2018-10-21T09:31:55.452Z,1022.19
2018-10-21T09:32:55.442Z,1022.23
2018-10-21T09:33:55.438Z,1022.23
2018-10-21T09:34:55.420Z,1022.19
2018-10-21T09:35:55.477Z,1022.21
2018-10-21T09:36:55.438Z,1022.06
2018-10-21T09:37:55.389Z,1022.14
2018-10-21T09:38:55.378Z,1022.08
2018-10-21T09:39:55.390Z,1022.04
2018-10-21T09:40:55.424Z,1022.02
2018-10-21T09:41:55.346Z,1021.99
2018-10-21T09:42:55.359Z,1021.96
2018-10-21T09:43:55.324Z,1021.97
2018-10-21T09:44:55.315Z,1022.10
2018-10-21T09:45:55.480Z,1022.03
2018-10-21T09:46:55.292Z,1022.08
2018-10-21T09:47:55.282Z,1022.07
2018-10-21T09:48:55.308Z,1022.02
2018-10-21T09:49:55.319Z,1021.98
2018-10-21T09:50:55.315Z,1021.98
2018-10-21T09:51:55.273Z,1021.90
2018-10-21T09:52:55.232Z,1021.85
2018-10-21T09:53:55.218Z,1021.95
2018-10-21T09:54:55.252Z,1021.97
2018-10-21T09:55:55.260Z,1021.93
2018-10-21T09:56:55.184Z,1021.93
2018-10-21T09:57:55.223Z,1021.90
2018-10-21T09:58:55.163Z,1021.90
2018-10-21T09:59:55.149Z,1021.98
2018-10-21T10:00:55.248Z,1021.97
2018-10-21T10:01:55.127Z,1022.03
2018-10-21T10:02:55.119Z,1021.99
2018-10-21T10:03:55.125Z,1021.98
2018-10-21T10:04:55.248Z,1022.00
2018-10-21T10:05:55.095Z,1022.00
2018-10-21T10:06:55.462Z,1021.96
2018-10-21T10:07:55.069Z,1021.97
2018-10-21T10:08:55.057Z,1021.93
2018-10-21T10:09:55.069Z,1021.95
2018-10-21T10:10:55.033Z,1021.93
2018-10-21T10:11:55.085Z,1021.97
2018-10-21T10:12:55.036Z,1022.01
2018-10-21T10:13:55.005Z,1022.00
2018-10-21T10:14:54.991Z,1021.94
2018-10-21T10:15:54.982Z,1021.89
2018-10-21T10:16:55.036Z,1021.91
2018-10-21T10:17:54.964Z,1021.92
2018-10-21T10:18:54.999Z,1021.93
2018-10-21T10:19:54.939Z,1021.85
2018-10-21T10:20:54.932Z,1021.89
2018-10-21T10:21:55.003Z,1021.89
2018-10-21T10:22:54.991Z,1021.88
2018-10-21T10:23:54.948Z,1021.89
2018-10-21T10:24:54.934Z,1021.83
2018-10-21T10:25:54.880Z,1021.82
2018-10-21T10:26:54.930Z,1021.86
2018-10-21T10:27:55.396Z,1021.88
2018-10-21T10:28:54.844Z,1021.81
2018-10-21T10:29:54.838Z,1021.85
2018-10-21T10:30:54.885Z,1021.88
2018-10-21T10:31:54.882Z,1021.81
2018-10-21T10:32:54.802Z,1021.89
2018-10-21T10:33:54.836Z,1021.84
2018-10-21T10:34:54.779Z,1021.84
2018-10-21T10:35:54.774Z,1021.86
2018-10-21T10:36:54.886Z,1021.80
2018-10-21T10:37:54.758Z,1021.83
2018-10-21T10:38:54.743Z,1021.82
2018-10-21T10:39:54.739Z,1021.80
2018-10-21T10:40:54.722Z,1021.83
2018-10-21T10:41:54.872Z,1021.79
2018-10-21T10:42:54.728Z,1021.74
2018-10-21T10:43:54.689Z,1021.76
2018-10-21T10:44:54.682Z,1021.78
2018-10-21T10:45:54.704Z,1021.76
2018-10-21T10:46:54.724Z,1021.82
2018-10-21T10:47:54.650Z,1021.77
2018-10-21T10:48:55.433Z,1021.82
2018-10-21T10:49:54.633Z,1021.75
2018-10-21T10:50:54.624Z,1021.76
2018-10-21T10:51:54.689Z,1021.72
2018-10-21T10:52:54.612Z,1021.78
2018-10-21T10:53:54.592Z,1021.74
2018-10-21T10:54:54.585Z,1021.73
2018-10-21T10:55:54.567Z,1021.78
2018-10-21T10:56:54.626Z,1021.78
2018-10-21T10:57:54.553Z,1021.75
2018-10-21T10:58:54.541Z,1021.78
2018-10-21T10:59:54.635Z,1021.75
2018-10-21T11:00:54.530Z,1021.72
2018-10-21T11:01:54.569Z,1021.72
2018-10-21T11:02:54.502Z,1021.77
2018-10-21T11:03:54.490Z,1021.65
2018-10-21T11:04:54.479Z,1021.66
2018-10-21T11:05:54.469Z,1021.62
2018-10-21T11:06:54.544Z,1021.67
2018-10-21T11:07:54.449Z,1021.56
2018-10-21T11:08:54.442Z,1021.54
2018-10-21T11:09:55.383Z,1021.53
2018-10-21T11:10:54.424Z,1021.56
2018-10-21T11:11:54.477Z,1021.47
2018-10-21T11:12:54.409Z,1021.56
2018-10-21T11:13:54.393Z,1021.52
2018-10-21T11:14:54.385Z,1021.52
2018-10-21T11:15:54.429Z,1021.48
2018-10-21T11:16:54.427Z,1021.50
2018-10-21T11:17:54.352Z,1021.47
2018-10-21T11:18:54.355Z,1021.48
2018-10-21T11:19:54.334Z,1021.48
2018-10-21T11:20:54.327Z,1021.47
2018-10-21T11:21:54.453Z,1021.46
2018-10-21T11:22:54.401Z,1021.43
2018-10-21T11:23:54.294Z,1021.45
2018-10-21T11:24:54.305Z,1021.39
2018-10-21T11:25:54.271Z,1021.39
2018-10-21T11:26:54.369Z,1021.39
2018-10-21T11:27:54.261Z,1021.37
2018-10-21T11:28:54.247Z,1021.36
2018-10-21T11:29:54.239Z,1021.34
2018-10-21T11:30:54.904Z,1021.38
2018-10-21T11:31:54.282Z,1021.35
2018-10-21T11:32:54.219Z,1021.35
2018-10-21T11:33:54.246Z,1021.42
2018-10-21T11:34:54.188Z,1021.37
2018-10-21T11:35:54.177Z,1021.39
2018-10-21T11:36:54.241Z,1021.40
2018-10-21T11:37:54.171Z,1021.39
2018-10-21T11:38:54.147Z,1021.39
2018-10-21T11:39:54.149Z,1021.35
2018-10-21T11:40:54.129Z,1021.34
2018-10-21T11:41:54.177Z,1021.29
2018-10-21T11:42:54.106Z,1021.26
2018-10-21T11:43:54.100Z,1021.24
2018-10-21T11:44:54.085Z,1021.28
2018-10-21T11:45:54.150Z,1021.30
2018-10-21T11:46:54.127Z,1021.23
2018-10-21T11:47:54.061Z,1021.20
2018-10-21T11:48:54.050Z,1021.21
2018-10-21T11:49:54.039Z,1021.20
2018-10-21T11:50:54.028Z,1021.17
2018-10-21T11:51:54.975Z,1021.12
2018-10-21T11:52:54.011Z,1021.08
2018-10-21T11:53:54.003Z,1021.09
2018-10-21T11:54:54.009Z,1021.06
2018-10-21T11:55:53.980Z,1021.06
2018-10-21T11:56:54.043Z,1021.05
2018-10-21T11:57:54.009Z,1021.01
2018-10-21T11:58:53.955Z,1020.99
2018-10-21T11:59:53.941Z,1020.98
2018-10-21T12:00:53.941Z,1021.00
2018-10-21T12:01:53.922Z,1020.98
2018-10-21T12:02:53.975Z,1021.03
2018-10-21T12:03:53.912Z,1021.00
2018-10-21T12:04:53.894Z,1020.96